Time;durP1;ratioP1;P1;durP2;ratioP2;P2;SDS_P1;SDS_P2;PMS_P1;PMS_P2;Temp;Humidity;BMP_temperature;BMP_pressure;BME280_temperature;BME280_humidity;BME280_pressure;Samples;Min_cycle;Max_cycle;Signal;HPM_P1;HPM_P2
2021/01/19 00:01:08;;;;;;;99.82;21.08;;;;;;;0.28;89.76;99727.44;5066263;28;20110;-70
2021/01/19 00:03:33;;;;;;;83.82;14.48;;;;;;;0.41;89.46;99723.47;5066633;28;20021;-70
2021/01/19 00:05:59;;;;;;;60.47;9.43;;;;;;;0.52;89.00;99723.72;5066165;28;20044;-70
2021/01/19 00:08:24;;;;;;;68.63;9.50;;;;;;;0.55;88.78;99718.66;5066072;28;20029;-69
2021/01/19 00:10:50;;;;;;;104.03;17.38;;;;;;;0.53;88.70;99719.47;5066101;28;20024;-69
2021/01/19 00:13:19;;;;;;;89.47;13.40;;;;;;;0.50;89.00;99710.03;5065717;28;20131;-69
2021/01/19 00:15:49;;;;;;;118.07;14.07;;;;;;;0.48;88.93;99715.09;5064546;28;20025;-69
2021/01/19 00:18:15;;;;;;;192.27;22.02;;;;;;;0.43;89.20;99714.13;5065786;28;20021;-69
2021/01/19 00:20:41;;;;;;;151.13;19.60;;;;;;;0.36;89.49;99713.16;5065849;28;20057;-70
2021/01/19 00:23:06;;;;;;;127.10;18.10;;;;;;;0.38;89.50;99715.75;5065939;28;20032;-72
2021/01/19 00:25:32;;;;;;;251.00;29.80;;;;;;;0.39;89.47;99707.25;5065864;28;20024;-71
2021/01/19 00:27:57;;;;;;;200.07;21.20;;;;;;;0.41;89.62;99700.50;5064558;28;20029;-72
2021/01/19 00:30:23;;;;;;;350.75;35.10;;;;;;;0.38;89.78;99697.00;5064496;28;20021;-72
2021/01/19 00:32:48;;;;;;;303.88;36.38;;;;;;;0.42;89.51;99684.34;5065562;28;20021;-72
2021/01/19 00:35:14;;;;;;;81.80;7.70;;;;;;;0.50;89.43;99687.03;5065794;28;20025;-72
2021/01/19 00:37:39;;;;;;;177.18;20.63;;;;;;;0.47;89.58;99684.44;5065410;28;20024;-72
2021/01/19 00:40:05;;;;;;;282.70;33.00;;;;;;;0.44;89.48;99676.69;5065634;28;20081;-72
2021/01/19 00:42:30;;;;;;;213.43;22.42;;;;;;;0.54;89.31;99675.22;5065376;28;20119;-72
2021/01/19 00:44:56;;;;;;;461.25;49.83;;;;;;;0.46;89.51;99681.00;5065530;28;20029;-71
2021/01/19 00:47:21;;;;;;;506.55;56.55;;;;;;;0.36;90.21;99679.09;5080652;28;20024;-71
2021/01/19 00:49:46;;;;;;;190.68;24.33;;;;;;;0.38;90.55;99686.78;5080842;28;20029;-72
2021/01/19 00:52:12;;;;;;;159.43;26.00;;;;;;;0.33;90.42;99672.25;5065474;28;20025;-71
2021/01/19 00:54:37;;;;;;;242.07;27.92;;;;;;;0.43;90.48;99686.03;5065318;28;20029;-71
2021/01/19 00:57:03;;;;;;;291.98;36.17;;;;;;;0.41;90.59;99680.06;5064975;28;20045;-71
2021/01/19 00:59:28;;;;;;;305.55;32.80;;;;;;;0.45;90.60;99671.63;5065370;28;20036;-72
2021/01/19 01:01:53;;;;;;;450.20;49.85;;;;;;;0.52;90.33;99674.31;5063894;28;20540;-72
2021/01/19 01:04:19;;;;;;;306.63;35.25;;;;;;;0.50;90.44;99669.16;5063779;28;20025;-72
2021/01/19 01:06:44;;;;;;;189.52;20.17;;;;;;;0.48;90.46;99668.25;5065092;28;20024;-72
2021/01/19 01:09:09;;;;;;;394.35;40.83;;;;;;;0.52;90.62;99661.53;5080618;28;20047;-72
2021/01/19 01:11:40;;;;;;;326.92;33.38;;;;;;;0.58;90.35;99651.44;5063273;28;20044;-72
2021/01/19 01:14:06;;;;;;;435.30;45.17;;;;;;;0.58;90.15;99654.88;5064975;28;20020;-72
2021/01/19 01:16:32;;;;;;;399.02;44.13;;;;;;;0.52;90.52;99654.75;5065174;28;20028;-72
2021/01/19 01:18:57;;;;;;;351.88;38.92;;;;;;;0.53;90.40;99645.41;5064862;28;20470;-72
2021/01/19 01:21:23;;;;;;;205.77;27.63;;;;;;;0.54;90.29;99644.56;5064914;28;20032;-72
2021/01/19 01:23:48;;;;;;;512.92;56.08;;;;;;;0.51;90.17;99641.94;5064714;28;20021;-72
2021/01/19 01:26:18;;;;;;;281.70;35.17;;;;;;;0.49;90.37;99634.25;5064847;28;20021;-71
2021/01/19 01:28:44;;;;;;;102.20;13.32;;;;;;;0.56;89.81;99628.41;5064433;28;20029;-71
2021/01/19 01:31:09;;;;;;;138.02;16.83;;;;;;;0.56;89.51;99619.91;5064537;28;20021;-72
2021/01/19 01:33:35;;;;;;;297.63;26.33;;;;;;;0.68;89.03;99629.50;5064578;28;20020;-72
2021/01/19 01:36:00;;;;;;;224.30;21.70;;;;;;;0.62;89.05;99622.59;5064594;28;20166;-72
2021/01/19 01:38:25;;;;;;;105.20;11.10;;;;;;;0.55;89.36;99623.28;5064249;28;20082;-71
2021/01/19 01:40:51;;;;;;;302.27;35.88;;;;;;;0.48;89.88;99633.38;5064313;28;20039;-71
2021/01/19 01:43:16;;;;;;;432.52;48.83;;;;;;;0.43;90.24;99629.03;5064068;28;20060;-71
2021/01/19 01:45:42;;;;;;;66.55;7.13;;;;;;;0.55;90.12;99634.38;5064315;28;20057;-72
2021/01/19 01:48:11;;;;;;;195.73;23.55;;;;;;;0.42;90.38;99617.94;5064224;28;20421;-72
2021/01/19 01:50:37;;;;;;;304.15;28.27;;;;;;;0.59;89.71;99619.97;5064537;28;20032;-72
2021/01/19 01:53:03;;;;;;;186.25;21.70;;;;;;;0.51;90.13;99613.84;5064292;28;20029;-71
2021/01/19 01:55:29;;;;;;;330.30;33.00;;;;;;;0.52;90.12;99620.66;5064074;28;20083;-71
2021/01/19 01:57:57;;;;;;;229.25;25.73;;;;;;;0.51;90.38;99613.84;5063628;28;20048;-72
2021/01/19 02:00:23;;;;;;;397.02;44.28;;;;;;;0.49;90.75;99613.81;5079510;28;20025;-72
2021/01/19 02:02:53;;;;;;;277.38;26.92;;;;;;;0.49;90.71;99604.47;5064215;28;20044;-71
2021/01/19 02:05:20;;;;;;;254.43;26.67;;;;;;;0.58;90.29;99615.69;5064159;28;20021;-71
2021/01/19 02:08:08;;;;;;;566.60;54.08;;;;;;;0.57;90.32;99604.63;5063872;28;20084;-72
2021/01/19 02:11:02;;;;;;;243.25;24.40;;;;;;;0.64;90.17;99600.47;5064087;28;20110;-72
2021/01/19 02:13:52;;;;;;;479.50;45.50;;;;;;;0.52;90.63;99605.34;5063687;28;20033;-71
2021/01/19 02:16:30;;;;;;;442.70;45.78;;;;;;;0.56;90.58;99599.47;5064025;28;20108;-71
2021/01/19 02:19:17;;;;;;;169.55;17.55;;;;;;;0.65;90.52;99588.56;5063818;28;20021;-71
2021/01/19 02:22:28;;;;;;;296.23;32.67;;;;;;;0.62;90.33;99591.94;5062598;28;20032;-71
2021/01/19 02:25:18;;;;;;;246.95;25.85;;;;;;;0.59;90.72;99587.59;5056238;28;20348;-71
2021/01/19 02:28:09;;;;;;;472.80;48.90;;;;;;;0.62;90.63;99579.16;5063447;28;20051;-71
2021/01/19 02:31:05;;;;;;;241.57;23.08;;;;;;;0.80;90.50;99588.00;5063676;28;20291;-71
2021/01/19 02:33:50;;;;;;;208.18;21.30;;;;;;;0.74;90.01;99576.81;5063692;28;20040;-71
2021/01/19 02:36:29;;;;;;;130.30;13.07;;;;;;;0.76;89.84;99576.84;5063678;28;20083;-71
2021/01/19 02:39:04;;;;;;;282.17;26.00;;;;;;;0.63;90.37;99578.31;5063462;28;20020;-71
2021/01/19 02:41:31;;;;;;;227.25;20.40;;;;;;;0.75;89.89;99577.69;5063375;28;20025;-70
2021/01/19 02:44:19;;;;;;;255.38;30.40;;;;;;;0.68;90.35;99574.16;5063339;28;20020;-71
2021/01/19 02:46:51;;;;;;;199.70;21.73;;;;;;;0.77;89.94;99577.72;5063308;28;20196;-71
2021/01/19 02:49:17;;;;;;;142.98;18.75;;;;;;;0.76;90.08;99587.06;5063519;28;20036;-71
2021/01/19 02:51:43;;;;;;;228.82;29.75;;;;;;;0.68;90.11;99563.94;5062943;28;20025;-71
2021/01/19 02:54:08;;;;;;;131.50;13.80;;;;;;;0.75;89.80;99575.13;5063399;28;20025;-71
2021/01/19 02:56:41;;;;;;;287.88;35.03;;;;;;;0.71;89.88;99568.22;5062003;28;20045;-71
2021/01/19 02:59:44;;;;;;;313.67;33.78;;;;;;;0.61;90.63;99570.63;5063550;28;20025;-72
2021/01/19 03:02:11;;;;;;;;;;;;;;;0.69;90.66;99575.00;5063967;28;20054;-71
2021/01/19 03:04:38;;;;;;;240.38;29.42;;;;;;;0.64;90.88;99571.53;5063574;28;19908;-72
2021/01/19 03:07:06;;;;;;;321.42;35.80;;;;;;;0.66;90.88;99565.59;5063267;28;20058;-71
2021/01/19 03:09:35;;;;;;;340.42;36.08;;;;;;;0.75;90.52;99559.81;5062072;28;20179;-72
2021/01/19 03:12:01;;;;;;;423.50;44.55;;;;;;;0.82;89.93;99560.75;5063379;28;20025;-71
2021/01/19 03:14:27;;;;;;;119.88;14.38;;;;;;;0.73;89.95;99566.56;5063983;28;20025;-71
2021/01/19 03:17:05;;;;;;;249.27;26.50;;;;;;;0.80;89.93;99553.06;5064016;28;20036;-71
2021/01/19 03:19:35;;;;;;;251.90;25.40;;;;;;;0.79;89.80;99545.38;5063582;28;20037;-71
2021/01/19 03:22:00;;;;;;;66.63;7.45;;;;;;;0.81;89.76;99542.03;5063580;28;20056;-70
2021/01/19 03:24:25;;;;;;;347.77;38.33;;;;;;;0.78;89.73;99538.56;5063424;28;20083;-70
2021/01/19 03:26:51;;;;;;;317.52;39.15;;;;;;;0.70;90.01;99541.81;5063224;28;20025;-69
2021/01/19 03:29:16;;;;;;;135.65;17.67;;;;;;;0.74;89.94;99528.28;5063337;28;20501;-69
2021/01/19 03:31:41;;;;;;;191.38;21.75;;;;;;;0.69;90.24;99542.66;5063263;28;20029;-70
2021/01/19 03:34:07;;;;;;;99.65;16.13;;;;;;;0.77;90.20;99539.41;5063224;28;20025;-70
2021/01/19 03:36:32;;;;;;;161.00;17.40;;;;;;;0.82;89.99;99538.63;5061542;28;20032;-70
2021/01/19 03:38:57;;;;;;;158.32;13.82;;;;;;;0.78;90.10;99534.31;5063009;28;20041;-70
2021/01/19 03:41:23;;;;;;;110.47;12.45;;;;;;;0.76;90.08;99528.31;5063123;28;20028;-69
2021/01/19 03:43:48;;;;;;;155.77;17.50;;;;;;;0.82;89.77;99525.84;5062666;28;20607;-68
2021/01/19 03:46:14;;;;;;;146.05;17.00;;;;;;;0.93;89.52;99522.59;5063253;28;20154;-68
2021/01/19 03:48:39;;;;;;;315.45;32.72;;;;;;;0.80;90.02;99522.41;5062779;28;20074;-69
2021/01/19 03:51:04;;;;;;;278.52;24.42;;;;;;;0.86;89.88;99525.06;5062918;28;20029;-69
2021/01/19 03:53:30;;;;;;;237.57;25.48;;;;;;;0.80;90.23;99521.56;5062840;28;20113;-69
2021/01/19 03:55:55;;;;;;;288.02;33.42;;;;;;;0.74;90.59;99523.16;5062610;28;20108;-69
2021/01/19 03:58:20;;;;;;;171.48;17.60;;;;;;;0.77;90.43;99522.34;5062757;28;20051;-70
2021/01/19 04:00:46;;;;;;;558.25;66.05;;;;;;;0.76;90.50;99505.31;5063104;28;20100;-69
2021/01/19 04:03:11;;;;;;;275.05;33.30;;;;;;;0.77;90.60;99503.63;5063860;28;20021;-70
2021/01/19 04:05:37;;;;;;;154.85;18.08;;;;;;;0.82;90.38;99513.06;5081481;28;20036;-69
2021/01/19 04:08:02;;;;;;;319.33;30.63;;;;;;;0.76;90.42;99504.44;5066415;28;20344;-69
2021/01/19 04:10:27;;;;;;;135.43;17.27;;;;;;;0.80;90.56;99507.06;5066066;28;20021;-70
2021/01/19 04:12:53;;;;;;;184.38;22.35;;;;;;;0.81;90.58;99492.59;5066072;28;20359;-70
2021/01/19 04:15:18;;;;;;;255.10;30.30;;;;;;;0.79;90.49;99490.03;5066283;28;20021;-69
2021/01/19 04:17:44;;;;;;;310.35;33.08;;;;;;;0.87;90.24;99495.25;5065868;28;20028;-69
2021/01/19 04:20:10;;;;;;;238.48;24.83;;;;;;;0.98;89.72;99488.63;5066049;28;20025;-69
2021/01/19 04:22:35;;;;;;;167.38;18.90;;;;;;;0.90;89.79;99476.56;5066055;28;20563;-69
2021/01/19 04:25:01;;;;;;;164.75;18.23;;;;;;;0.88;90.08;99489.31;5066016;28;20029;-69
2021/01/19 04:27:26;;;;;;;138.18;14.95;;;;;;;0.85;90.28;99485.00;5065475;28;20070;-70
2021/01/19 04:29:51;;;;;;;193.63;22.50;;;;;;;0.88;90.11;99486.75;5066034;28;20024;-68
2021/01/19 04:32:17;;;;;;;111.70;13.63;;;;;;;0.82;90.28;99479.84;5065936;28;20367;-69
2021/01/19 04:34:43;;;;;;;196.43;18.80;;;;;;;0.82;90.48;99482.41;5065861;28;20036;-69
2021/01/19 04:37:08;;;;;;;378.85;41.20;;;;;;;0.94;89.89;99479.19;5065620;28;20102;-69
2021/01/19 04:39:34;;;;;;;52.40;8.98;;;;;;;0.97;89.96;99474.16;5065758;28;20025;-68
2021/01/19 04:41:59;;;;;;;304.88;31.05;;;;;;;0.93;90.04;99464.69;5065414;28;20382;-69
2021/01/19 04:44:27;;;;;;;270.98;25.33;;;;;;;0.89;90.31;99475.72;5065723;28;20096;-69
2021/01/19 04:46:52;;;;;;;194.10;19.55;;;;;;;0.95;90.15;99472.38;5065651;28;20048;-69
2021/01/19 04:49:18;;;;;;;223.38;23.70;;;;;;;1.02;89.93;99478.47;5065438;28;20508;-69
2021/01/19 04:51:47;;;;;;;298.85;34.88;;;;;;;0.93;90.30;99474.03;5065616;28;20021;-68
2021/01/19 04:54:17;;;;;;;81.53;10.18;;;;;;;0.94;90.23;99468.94;5065370;28;20075;-68
2021/01/19 04:57:01;;;;;;;210.98;25.10;;;;;;;1.02;90.02;99468.22;5065260;28;20041;-70
2021/01/19 04:59:37;;;;;;;211.90;28.38;;;;;;;0.91;90.34;99468.91;5065394;28;20070;-69
2021/01/19 05:02:15;;;;;;;121.95;13.45;;;;;;;1.07;89.86;99471.72;5065351;28;20393;-69
2021/01/19 05:04:48;;;;;;;129.32;12.77;;;;;;;1.09;89.48;99460.69;5065305;28;20074;-68
2021/01/19 05:07:26;;;;;;;222.68;21.33;;;;;;;0.96;90.33;99466.41;5065131;28;20461;-68
2021/01/19 05:10:14;;;;;;;251.40;29.17;;;;;;;0.92;90.46;99452.75;5080322;28;20086;-69
2021/01/19 05:12:44;;;;;;;236.27;25.23;;;;;;;0.93;90.29;99449.34;5057724;28;20056;-68
2021/01/19 05:15:14;;;;;;;255.85;23.48;;;;;;;0.92;90.81;99450.19;5064417;28;20032;-69
2021/01/19 05:17:41;;;;;;;393.73;42.40;;;;;;;0.94;90.67;99448.50;5064609;28;20031;-69
2021/01/19 05:20:08;;;;;;;274.92;29.25;;;;;;;0.94;90.56;99456.19;5064879;28;20035;-69
2021/01/19 05:22:33;;;;;;;267.67;24.73;;;;;;;0.93;90.88;99445.94;5064606;28;20021;-69
2021/01/19 05:24:59;;;;;;;185.75;19.80;;;;;;;1.00;90.73;99442.66;5064649;28;20024;-69
2021/01/19 05:27:25;;;;;;;217.35;24.38;;;;;;;1.07;90.36;99452.13;5064412;28;20025;-69
2021/01/19 05:30:09;;;;;;;216.15;25.98;;;;;;;1.18;90.25;99442.03;5064925;28;20028;-69
2021/01/19 05:32:42;;;;;;;292.20;29.98;;;;;;;1.11;90.10;99437.69;5064738;28;20028;-69
2021/01/19 05:35:19;;;;;;;239.57;21.52;;;;;;;1.03;90.51;99444.38;5064614;28;20021;-68
2021/01/19 05:38:00;;;;;;;326.00;32.95;;;;;;;1.06;90.58;99439.31;5079839;28;20036;-69
2021/01/19 05:40:27;;;;;;;167.03;20.20;;;;;;;1.15;90.29;99438.59;5064555;28;20035;-68
2021/01/19 05:42:53;;;;;;;138.68;14.30;;;;;;;1.14;90.52;99424.94;5079904;28;20025;-68
2021/01/19 05:45:19;;;;;;;245.07;23.92;;;;;;;1.09;90.54;99426.56;5079808;28;20044;-69
2021/01/19 05:47:45;;;;;;;260.63;27.17;;;;;;;1.20;90.07;99432.69;5064340;28;20115;-69
2021/01/19 05:50:11;;;;;;;220.23;21.52;;;;;;;1.17;90.17;99425.00;5064345;28;20048;-69
2021/01/19 05:52:37;;;;;;;334.38;37.97;;;;;;;1.10;90.47;99429.16;5064177;28;20489;-69
2021/01/19 05:55:04;;;;;;;73.90;7.93;;;;;;;1.29;89.67;99413.22;5063824;28;20032;-71
2021/01/19 05:57:29;;;;;;;27.67;4.88;;;;;;;1.31;89.94;99407.28;5063418;28;20123;-70
2021/01/19 05:59:57;;;;;;;138.68;17.30;;;;;;;1.27;89.70;99405.53;5063492;28;20028;-69
2021/01/19 06:02:36;;;;;;;315.80;32.83;;;;;;;1.16;90.15;99399.41;5063734;28;20381;-69
2021/01/19 06:05:14;;;;;;;97.95;10.45;;;;;;;1.25;90.13;99402.09;5062355;28;20033;-69
2021/01/19 06:07:44;;;;;;;46.83;5.82;;;;;;;1.55;88.91;99397.34;5063701;28;20467;-69
2021/01/19 06:10:11;;;;;;;38.67;6.00;;;;;;;1.42;89.26;99399.72;5063559;28;20025;-69
2021/01/19 06:12:37;;;;;;;217.10;23.73;;;;;;;1.29;89.52;99385.09;5063396;28;20025;-71
2021/01/19 06:15:03;;;;;;;209.63;21.50;;;;;;;1.20;90.03;99394.34;5063852;28;20025;-71
2021/01/19 06:17:29;;;;;;;45.17;5.72;;;;;;;1.42;89.54;99386.94;5063377;28;20025;-71
2021/01/19 06:19:58;;;;;;;126.28;11.98;;;;;;;1.48;88.81;99381.06;5063513;28;20475;-71
2021/01/19 06:22:27;;;;;;;44.55;5.32;;;;;;;1.21;89.72;99375.63;5078791;28;20088;-70
2021/01/19 06:24:53;;;;;;;181.63;20.13;;;;;;;1.22;90.23;99386.69;5061963;28;20017;-71
2021/01/19 06:27:25;;;;;;;105.88;9.60;;;;;;;1.41;89.46;99385.25;5062608;28;20043;-70
2021/01/19 06:30:01;;;;;;;46.45;5.13;;;;;;;1.30;89.28;99363.78;5063537;28;20147;-72
2021/01/19 06:32:28;;;;;;;152.45;14.48;;;;;;;1.43;88.97;99369.91;5063314;28;20067;-72
2021/01/19 06:34:53;;;;;;;120.95;11.90;;;;;;;1.20;89.83;99373.91;5062997;28;20047;-72
2021/01/19 06:37:28;;;;;;;91.82;8.35;;;;;;;1.34;89.59;99366.41;5078399;28;20021;-68
2021/01/19 06:40:02;;;;;;;82.57;7.63;;;;;;;1.36;89.36;99379.19;5063275;28;20021;-68
2021/01/19 06:42:30;;;;;;;60.15;7.55;;;;;;;1.31;89.32;99373.19;5062912;28;20040;-67
2021/01/19 06:44:59;;;;;;;68.15;8.50;;;;;;;1.40;89.12;99373.31;5063053;28;20020;-70
2021/01/19 06:47:25;;;;;;;122.50;13.93;;;;;;;1.27;89.50;99366.31;5062880;28;20044;-74
2021/01/19 06:49:52;;;;;;;52.47;6.75;;;;;;;1.25;89.63;99352.66;5063098;28;20033;-68
2021/01/19 06:52:19;;;;;;;115.53;12.88;;;;;;;1.31;89.25;99352.72;5062903;28;20024;-69
2021/01/19 06:54:54;;;;;;;112.18;12.00;;;;;;;1.23;89.69;99367.97;5063306;28;20029;-69
2021/01/19 06:57:48;;;;;;;171.57;16.02;;;;;;;1.19;90.55;99372.19;5078505;28;20521;-68
2021/01/19 07:00:18;;;;;;;0.20;0.20;;;;;;;1.25;89.87;99360.34;5063207;28;20028;-69
2021/01/19 07:02:48;;;;;;;0.20;0.20;;;;;;;1.14;90.36;99366.16;5063419;28;20017;-67
2021/01/19 07:05:21;;;;;;;1.83;0.57;;;;;;;1.26;89.96;99354.38;5063231;28;20102;-71
2021/01/19 07:07:47;;;;;;;0.30;0.30;;;;;;;1.19;90.23;99355.97;5062933;28;20025;-70
2021/01/19 07:10:20;;;;;;;0.30;0.30;;;;;;;1.11;90.83;99359.31;5062930;28;20367;-70
2021/01/19 07:13:06;;;;;;;0.30;0.30;;;;;;;1.10;90.82;99354.19;5062845;28;20052;-70
2021/01/19 07:16:03;;;;;;;0.30;0.30;;;;;;;1.51;89.17;99354.66;5063110;28;20025;-71
2021/01/19 07:19:09;;;;;;;0.22;0.22;;;;;;;1.58;88.85;99347.06;5061751;28;20021;-71
2021/01/19 07:21:59;;;;;;;0.30;0.30;;;;;;;1.28;89.58;99345.88;5061637;28;20031;-72
2021/01/19 07:24:26;;;;;;;0.30;0.30;;;;;;;1.25;90.27;99338.16;5063071;28;20028;-71
2021/01/19 07:26:53;;;;;;;0.30;0.30;;;;;;;1.23;89.83;99338.13;5062458;28;20082;-72
2021/01/19 07:29:20;;;;;;;0.30;0.30;;;;;;;1.29;89.73;99341.63;5061337;28;20028;-72
2021/01/19 07:31:46;;;;;;;0.25;0.25;;;;;;;1.25;89.95;99335.59;5077114;28;20057;-72
2021/01/19 07:34:13;;;;;;;0.20;0.20;;;;;;;1.13;90.32;99320.09;5062016;28;20393;-72
2021/01/19 07:36:38;;;;;;;0.30;0.30;;;;;;;1.19;90.40;99326.16;5062158;28;20051;-72
2021/01/19 07:39:15;;;;;;;0.20;0.20;;;;;;;1.25;90.34;99321.97;5065606;28;20029;-72
2021/01/19 07:41:40;;;;;;;0.22;0.22;;;;;;;1.11;90.63;99320.09;5065758;28;20025;-72
2021/01/19 07:44:06;;;;;;;0.30;0.30;;;;;;;0.98;90.94;99311.41;5065918;28;20516;-71
2021/01/19 07:46:32;;;;;;;0.30;0.30;;;;;;;1.13;90.37;99320.97;5066329;28;20073;-71
2021/01/19 07:49:08;;;;;;;0.30;0.30;;;;;;;0.99;90.81;99301.19;5066309;28;20017;-72
2021/01/19 07:51:52;;;;;;;0.20;0.20;;;;;;;1.02;91.08;99308.06;5065111;28;20021;-71
2021/01/19 07:54:20;;;;;;;0.22;0.22;;;;;;;0.95;90.90;99299.44;5066518;28;20021;-71
2021/01/19 07:56:46;;;;;;;0.20;0.20;;;;;;;0.94;90.76;99296.88;5066115;28;20052;-70
2021/01/19 07:59:16;;;;;;;0.30;0.30;;;;;;;1.12;89.39;99296.22;5066079;28;20029;-71
2021/01/19 08:01:52;;;;;;;0.30;0.30;;;;;;;0.94;89.90;99292.59;5065278;28;20055;-71
2021/01/19 08:04:27;;;;;;;0.30;0.30;;;;;;;0.83;89.81;99276.31;5066164;28;20017;-71
2021/01/19 08:06:52;;;;;;;1.25;1.25;;;;;;;1.07;88.51;99282.56;5066497;28;20029;-71
2021/01/19 08:09:21;;;;;;;0.30;0.30;;;;;;;0.88;89.53;99287.41;5065807;28;20074;-71
2021/01/19 08:11:47;;;;;;;0.30;0.30;;;;;;;0.78;89.61;99283.03;5065587;28;20025;-71
2021/01/19 08:14:13;;;;;;;0.30;0.30;;;;;;;0.79;89.41;99282.19;5065923;28;20548;-71
2021/01/19 08:16:47;;;;;;;0.30;0.30;;;;;;;0.95;88.72;99291.78;5066165;28;20470;-71
2021/01/19 08:19:14;;;;;;;0.30;0.30;;;;;;;0.84;88.56;99278.88;5065918;28;20060;-71
2021/01/19 08:21:40;;;;;;;0.30;0.30;;;;;;;0.69;89.20;99279.50;5066098;28;20024;-71
2021/01/19 08:24:07;;;;;;;0.30;0.30;;;;;;;0.65;89.73;99275.22;5065987;28;20017;-72
2021/01/19 08:26:33;;;;;;;0.30;0.30;;;;;;;0.67;89.22;99273.50;5065975;28;20025;-70
2021/01/19 08:29:01;;;;;;;0.30;0.30;;;;;;;0.59;89.73;99277.69;5064396;28;20056;-73
2021/01/19 08:31:31;;;;;;;0.30;0.30;;;;;;;0.71;88.87;99262.53;5066043;28;20112;-71
2021/01/19 08:34:05;;;;;;;0.20;0.20;;;;;;;0.76;88.65;99275.34;5065773;28;20513;-69
2021/01/19 08:36:31;;;;;;;0.30;0.30;;;;;;;0.86;87.83;99272.06;5065613;28;20105;-70
2021/01/19 08:38:59;;;;;;;0.30;0.30;;;;;;;0.72;88.30;99259.13;5065229;28;20036;-70
2021/01/19 08:41:25;;;;;;;0.30;0.30;;;;;;;0.65;88.99;99265.00;5064865;28;20436;-70
2021/01/19 08:43:52;;;;;;;0.30;0.30;;;;;;;0.76;88.50;99259.16;5065154;28;20036;-70
2021/01/19 08:46:17;;;;;;;0.30;0.30;;;;;;;0.82;88.41;99249.00;5065421;28;20029;-70
2021/01/19 08:48:42;;;;;;;0.30;0.30;;;;;;;0.66;88.87;99238.59;5063243;28;20023;-71
2021/01/19 08:51:24;;;;;;;0.30;0.30;;;;;;;0.79;88.39;99244.72;5065518;28;20021;-71
2021/01/19 08:53:49;;;;;;;0.30;0.30;;;;;;;0.91;88.20;99244.00;5080876;28;20017;-69
2021/01/19 08:56:26;;;;;;;0.28;0.28;;;;;;;0.76;89.13;99247.25;5065339;28;20638;-68
2021/01/19 08:58:52;;;;;;;0.30;0.30;;;;;;;0.87;89.20;99237.16;5065195;28;20063;-69
2021/01/19 09:01:18;;;;;;;0.30;0.30;;;;;;;0.83;89.03;99226.03;5065518;28;20021;-70
2021/01/19 09:03:54;;;;;;;0.30;0.30;;;;;;;0.81;89.34;99232.84;5065207;28;20100;-70
2021/01/19 09:06:20;;;;;;;0.30;0.30;;;;;;;0.80;89.09;99233.66;5065083;28;20040;-70
2021/01/19 09:08:49;;;;;;;0.30;0.30;;;;;;;0.70;89.81;99237.78;5080514;28;20075;-70
2021/01/19 09:11:14;;;;;;;0.30;0.30;;;;;;;0.99;88.87;99219.41;5065036;28;20466;-70
2021/01/19 09:13:41;;;;;;;0.30;0.30;;;;;;;1.22;87.88;99221.38;5080034;28;20043;-70
2021/01/19 09:16:07;;;;;;;0.30;0.30;;;;;;;1.17;88.17;99229.81;5065280;28;20025;-70
2021/01/19 09:18:33;;;;;;;0.30;0.30;;;;;;;1.02;88.31;99215.19;5064876;28;20045;-71
2021/01/19 09:21:10;;;;;;;0.30;0.30;;;;;;;1.19;87.86;99213.66;5065016;28;20029;-71
2021/01/19 09:23:36;;;;;;;0.30;0.30;;;;;;;1.01;88.41;99209.19;5064937;28;20009;-71
2021/01/19 09:26:06;;;;;;;0.30;0.30;;;;;;;0.89;88.47;99214.19;5064855;28;20039;-71
2021/01/19 09:28:35;;;;;;;0.30;0.30;;;;;;;0.74;89.17;99190.16;5064829;28;20024;-72
2021/01/19 09:31:11;;;;;;;0.30;0.30;;;;;;;0.87;88.85;99201.38;5064727;28;20055;-70
2021/01/19 09:33:38;;;;;;;0.30;0.30;;;;;;;0.88;88.67;99200.53;5063521;28;20025;-71
2021/01/19 09:36:09;;;;;;;0.30;0.30;;;;;;;0.85;88.42;99203.06;5063404;28;20035;-72
2021/01/19 09:38:35;;;;;;;0.30;0.30;;;;;;;0.95;88.42;99202.34;5064680;28;20024;-72
2021/01/19 09:41:01;;;;;;;0.30;0.30;;;;;;;0.73;89.01;99179.09;5078902;28;20026;-72
2021/01/19 09:43:28;;;;;;;0.30;0.30;;;;;;;0.81;88.75;99198.75;5062629;28;20020;-72
2021/01/19 09:46:02;;;;;;;0.25;0.25;;;;;;;0.96;87.74;99191.25;5064753;28;20066;-72
2021/01/19 09:48:30;;;;;;;0.38;0.38;;;;;;;0.79;88.70;99200.44;5064483;28;20032;-72
2021/01/19 09:51:04;;;;;;;0.30;0.30;;;;;;;0.99;88.00;99188.72;5064443;28;20035;-72
2021/01/19 09:53:32;;;;;;;0.20;0.20;;;;;;;0.89;88.57;99186.06;5064511;28;20053;-71
2021/01/19 09:55:59;;;;;;;0.30;0.30;;;;;;;1.19;86.83;99188.09;5062957;28;20067;-71
2021/01/19 09:58:29;;;;;;;0.30;0.30;;;;;;;1.08;87.04;99194.78;5064550;28;20051;-71
2021/01/19 10:00:55;;;;;;;0.30;0.30;;;;;;;0.98;86.41;99178.50;5064598;28;20021;-71
2021/01/19 10:03:25;;;;;;;1.33;1.33;;;;;;;0.60;87.88;99177.22;5064123;28;20039;-71
2021/01/19 10:06:02;;;;;;;0.40;0.40;;;;;;;0.57;88.12;99179.75;5062942;28;20110;-72
2021/01/19 10:08:28;;;;;;;0.30;0.30;;;;;;;0.52;87.95;99171.16;5064321;28;20446;-72
2021/01/19 10:10:53;;;;;;;0.30;0.30;;;;;;;0.44;88.64;99179.59;5064057;28;20025;-71
2021/01/19 10:13:47;;;;;;;0.30;0.30;;;;;;;0.68;87.79;99172.19;5063779;28;20477;-71
2021/01/19 10:16:12;;;;;;;0.30;0.30;;;;;;;0.43;87.89;99159.13;5060562;28;20060;-72
2021/01/19 10:18:40;;;;;;;0.30;0.30;;;;;;;0.41;87.94;99171.88;5063891;28;20045;-71
2021/01/19 10:21:05;;;;;;;0.30;0.30;;;;;;;0.44;88.64;99166.81;5063773;28;20032;-70
2021/01/19 10:23:33;;;;;;;0.40;0.40;;;;;;;0.51;88.01;99162.66;5063739;28;20024;-71
2021/01/19 10:26:09;;;;;;;0.30;0.30;;;;;;;0.46;88.40;99159.19;5063858;28;20029;-70
2021/01/19 10:28:44;;;;;;;0.30;0.30;;;;;;;0.53;88.41;99160.94;5063456;28;20220;-69
2021/01/19 10:31:21;;;;;;;0.30;0.30;;;;;;;0.50;88.50;99155.81;5063877;28;20029;-69
2021/01/19 10:34:13;;;;;;;0.30;0.30;;;;;;;0.46;89.10;99139.59;5063526;28;20028;-70
2021/01/19 10:36:50;;;;;;;0.40;0.40;;;;;;;0.51;88.80;99141.34;5062443;28;20055;-70
2021/01/19 10:39:15;;;;;;;0.30;0.30;;;;;;;0.49;89.25;99146.44;5063572;28;20040;-70
2021/01/19 10:41:41;;;;;;;0.30;0.30;;;;;;;0.48;89.03;99143.03;5063489;28;20482;-70
2021/01/19 10:44:10;;;;;;;0.30;0.30;;;;;;;0.56;89.14;99144.81;5063399;28;20048;-69
2021/01/19 10:46:36;;;;;;;0.30;0.30;;;;;;;0.50;89.30;99135.38;5063522;28;20031;-69
2021/01/19 10:49:15;;;;;;;0.38;0.38;;;;;;;0.51;89.76;99146.47;5062148;28;20057;-69
2021/01/19 10:51:42;;;;;;;0.30;0.30;;;;;;;0.45;89.96;99142.97;5063522;28;20032;-70
2021/01/19 10:54:11;;;;;;;0.40;0.40;;;;;;;0.69;88.87;99143.25;5063778;28;20052;-69
2021/01/19 10:56:39;;;;;;;0.40;0.40;;;;;;;0.60;88.97;99144.00;5063443;28;20040;-69
2021/01/19 10:59:05;;;;;;;0.32;0.32;;;;;;;0.71;88.78;99132.22;5063414;28;20024;-69
2021/01/19 11:01:34;;;;;;;0.30;0.30;;;;;;;0.54;89.26;99133.72;5063674;28;20076;-69
2021/01/19 11:04:00;;;;;;;0.30;0.30;;;;;;;0.50;89.08;99125.16;5063660;28;20077;-69
2021/01/19 11:06:32;;;;;;;0.30;0.30;;;;;;;0.51;89.04;99138.81;5063704;28;20044;-68
2021/01/19 11:08:58;;;;;;;0.30;0.30;;;;;;;0.50;89.12;99125.16;5063555;28;20037;-69
2021/01/19 11:11:24;;;;;;;0.30;0.30;;;;;;;0.52;89.46;99122.63;5063490;28;20078;-69
2021/01/19 11:13:49;;;;;;;0.30;0.30;;;;;;;0.38;89.65;99128.44;5065222;28;20236;-70
2021/01/19 11:16:15;;;;;;;0.32;0.32;;;;;;;0.50;88.86;99132.81;5067377;28;20499;-69
2021/01/19 11:18:40;;;;;;;0.30;0.30;;;;;;;0.49;89.08;99123.47;5068074;28;20088;-69
2021/01/19 11:21:06;;;;;;;0.32;0.32;;;;;;;0.32;89.08;99124.09;5067931;28;20056;-70
2021/01/19 11:23:32;;;;;;;0.40;0.40;;;;;;;0.40;89.11;99125.91;5067957;28;20027;-70
2021/01/19 11:25:58;;;;;;;0.30;0.30;;;;;;;0.27;89.45;99124.88;5067619;28;20020;-70
2021/01/19 11:28:23;;;;;;;0.40;0.40;;;;;;;0.37;88.80;99126.69;5067160;28;20028;-71
2021/01/19 11:30:51;;;;;;;0.30;0.30;;;;;;;0.20;88.87;99122.25;5067394;28;20052;-68
2021/01/19 11:33:18;;;;;;;0.30;0.30;;;;;;;0.23;88.74;99113.78;5067287;28;20071;-69
2021/01/19 11:35:44;;;;;;;0.30;0.30;;;;;;;0.17;89.30;99118.81;5067023;28;20485;-69
2021/01/19 11:38:09;;;;;;;0.30;0.30;;;;;;;0.09;89.73;99109.38;5066815;28;20040;-67
2021/01/19 11:40:35;;;;;;;0.20;0.20;;;;;;;0.24;89.62;99113.78;5067253;28;20017;-68